createdAt,value
2023-03-04T00:02:16.023Z,63.10
2023-03-04T00:04:42.924Z,63.10
2023-03-04T00:07:09.897Z,63.30
2023-03-04T00:09:36.837Z,63.10
2023-03-04T00:12:03.886Z,63.00
2023-03-04T00:14:30.717Z,64.00
2023-03-04T00:16:57.784Z,64.50
2023-03-04T00:19:24.620Z,64.50
2023-03-04T00:21:51.507Z,64.90
2023-03-04T00:24:18.399Z,65.50
2023-03-04T00:26:46.539Z,65.10
2023-03-04T00:29:13.543Z,65.00
2023-03-04T00:31:40.492Z,65.90
2023-03-04T00:34:08.098Z,66.10
2023-03-04T00:36:35.013Z,66.10
2023-03-04T00:39:01.938Z,65.60
2023-03-04T00:41:29.174Z,65.80
2023-03-04T00:43:56.051Z,65.60
2023-03-04T00:46:22.987Z,65.90
2023-03-04T00:48:49.832Z,65.70
2023-03-04T00:51:16.739Z,65.90
2023-03-04T00:53:43.862Z,66.10
2023-03-04T00:56:10.847Z,66.30
2023-03-04T00:58:37.897Z,66.80
2023-03-04T01:01:05.015Z,67.00
2023-03-04T01:03:32.763Z,67.20
2023-03-04T01:05:59.937Z,67.70
2023-03-04T01:08:26.994Z,68.70
2023-03-04T01:10:54.025Z,68.10
2023-03-04T01:13:20.925Z,68.20
2023-03-04T01:15:47.790Z,69.70
2023-03-04T01:18:14.829Z,70.10
2023-03-04T01:20:41.861Z,69.40
2023-03-04T01:23:08.715Z,69.10
2023-03-04T01:25:35.796Z,69.80
2023-03-04T01:28:02.800Z,68.60
2023-03-04T01:30:29.676Z,68.90
2023-03-04T01:32:56.695Z,69.70
2023-03-04T01:35:23.606Z,69.30
2023-03-04T01:37:50.564Z,70.20
2023-03-04T01:40:17.581Z,70.20
2023-03-04T01:42:44.504Z,70.10
2023-03-04T01:45:14.389Z,70.20
2023-03-04T01:47:43.760Z,70.10
2023-03-04T01:50:13.544Z,70.20
2023-03-04T01:52:40.415Z,70.10
2023-03-04T01:55:15.045Z,70.20
2023-03-04T01:57:41.992Z,70.80
2023-03-04T02:00:19.622Z,70.20
2023-03-04T02:02:47.697Z,71.30
2023-03-04T02:05:14.773Z,70.30
2023-03-04T02:07:42.022Z,71.60
2023-03-04T02:10:10.725Z,71.40
2023-03-04T02:12:37.646Z,71.60
2023-03-04T02:15:05.154Z,70.30
2023-03-04T02:17:32.528Z,72.20
2023-03-04T02:20:17.597Z,71.80
2023-03-04T02:22:54.013Z,72.70
2023-03-04T02:25:24.094Z,72.50
2023-03-04T02:27:51.334Z,73.30
2023-03-04T02:30:22.604Z,71.50
2023-03-04T02:32:49.713Z,72.90
2023-03-04T02:35:18.018Z,71.70
2023-03-04T02:37:45.369Z,71.80
2023-03-04T02:40:15.976Z,74.10
2023-03-04T02:42:44.934Z,74.10
2023-03-04T02:45:35.277Z,74.60
2023-03-04T02:48:02.397Z,76.10
2023-03-04T02:50:31.399Z,75.60
2023-03-04T02:52:59.659Z,75.60
2023-03-04T02:55:26.613Z,74.70
2023-03-04T02:57:53.543Z,75.00
2023-03-04T03:00:20.719Z,74.90
2023-03-04T03:02:48.746Z,74.30
2023-03-04T03:05:15.851Z,73.90
2023-03-04T03:07:43.144Z,72.90
2023-03-04T03:10:11.075Z,72.80
2023-03-04T03:12:38.591Z,72.60
2023-03-04T03:15:05.992Z,72.70
2023-03-04T03:17:33.279Z,73.40
2023-03-04T03:20:00.197Z,73.70
2023-03-04T03:22:27.246Z,74.00
2023-03-04T03:24:54.081Z,73.90
2023-03-04T03:27:20.960Z,73.70
2023-03-04T03:29:47.865Z,74.10
2023-03-04T03:32:14.813Z,75.30
2023-03-04T03:34:41.974Z,75.50
2023-03-04T03:37:09.501Z,75.70
2023-03-04T03:39:36.392Z,76.90
2023-03-04T03:42:03.406Z,77.10
2023-03-04T03:44:30.332Z,75.90
2023-03-04T03:46:57.690Z,77.30
2023-03-04T03:49:24.624Z,77.90
2023-03-04T03:51:51.476Z,77.70
2023-03-04T03:54:18.365Z,77.50
2023-03-04T03:56:45.261Z,76.60
2023-03-04T03:59:12.140Z,77.30
2023-03-04T04:01:38.975Z,76.10
2023-03-04T04:04:05.978Z,75.60
2023-03-04T04:06:32.851Z,75.70
2023-03-04T04:08:59.824Z,75.90
2023-03-04T04:11:26.722Z,75.90
2023-03-04T04:13:53.706Z,75.60
2023-03-04T04:16:20.731Z,75.60
2023-03-04T04:18:47.638Z,74.50
2023-03-04T04:21:14.820Z,75.20
2023-03-04T04:23:41.736Z,74.50
2023-03-04T04:26:08.577Z,74.40
2023-03-04T04:28:35.438Z,74.60
2023-03-04T04:31:02.382Z,74.90
2023-03-04T04:33:29.268Z,74.80
2023-03-04T04:35:56.173Z,74.80
2023-03-04T04:38:24.766Z,74.90
2023-03-04T04:40:51.588Z,74.50
2023-03-04T04:43:18.466Z,74.90
2023-03-04T04:45:45.448Z,75.00
2023-03-04T04:48:12.377Z,74.80
2023-03-04T04:50:39.231Z,74.50
2023-03-04T04:53:06.154Z,74.20
2023-03-04T04:55:34.701Z,75.30
2023-03-04T04:58:01.541Z,75.00
2023-03-04T05:00:28.396Z,74.20
2023-03-04T05:02:55.297Z,75.00
2023-03-04T05:05:22.149Z,74.80
2023-03-04T05:07:49.076Z,74.40
2023-03-04T05:10:16.036Z,75.10
2023-03-04T05:12:44.668Z,74.60
2023-03-04T05:15:11.898Z,75.40
2023-03-04T05:17:38.819Z,75.50
2023-03-04T05:20:07.263Z,75.90
2023-03-04T05:22:34.325Z,76.50
2023-03-04T05:25:01.149Z,76.50
2023-03-04T05:27:28.016Z,77.00
2023-03-04T05:29:55.725Z,77.40
2023-03-04T05:32:22.634Z,77.30
2023-03-04T05:34:49.513Z,77.90
2023-03-04T05:37:16.380Z,80.40
2023-03-04T05:39:43.234Z,81.60
2023-03-04T05:42:10.114Z,82.30
2023-03-04T05:44:36.972Z,82.10
2023-03-04T05:47:03.807Z,82.30
2023-03-04T05:49:30.696Z,82.70
2023-03-04T05:51:57.592Z,82.60
2023-03-04T05:54:24.443Z,81.60
2023-03-04T05:56:51.331Z,79.60
2023-03-04T05:59:20.926Z,78.40
2023-03-04T06:01:48.082Z,79.10
2023-03-04T06:04:15.036Z,78.90
2023-03-04T06:06:41.938Z,79.20
2023-03-04T06:09:08.830Z,79.50
2023-03-04T06:11:36.460Z,80.90
2023-03-04T06:14:03.553Z,81.20
2023-03-04T06:16:30.513Z,82.30
2023-03-04T06:18:57.387Z,82.30
2023-03-04T06:21:24.273Z,83.00
2023-03-04T06:23:51.168Z,85.40
2023-03-04T06:26:18.004Z,86.60
2023-03-04T06:28:44.989Z,88.30
2023-03-04T06:31:11.825Z,89.30
2023-03-04T06:33:38.713Z,89.50
2023-03-04T06:36:06.042Z,89.20
2023-03-04T06:38:32.997Z,90.00
2023-03-04T06:41:07.903Z,90.10
2023-03-04T06:43:34.809Z,90.10
2023-03-04T06:46:01.713Z,90.00
2023-03-04T06:48:28.755Z,90.20
2023-03-04T06:50:55.790Z,90.00
2023-03-04T06:53:22.755Z,89.50
2023-03-04T06:55:50.502Z,89.20
2023-03-04T06:58:17.551Z,89.60
2023-03-04T07:00:45.321Z,88.20
2023-03-04T07:03:12.990Z,90.30
2023-03-04T07:05:39.918Z,89.80
2023-03-04T07:08:07.653Z,90.10
2023-03-04T07:10:34.530Z,90.10
2023-03-04T07:13:01.767Z,90.10
2023-03-04T07:15:28.772Z,88.80
2023-03-04T07:17:55.787Z,89.10
2023-03-04T07:20:22.716Z,90.20
2023-03-04T07:22:49.619Z,89.30
2023-03-04T07:25:18.097Z,90.00
2023-03-04T07:27:45.042Z,88.50
2023-03-04T07:30:12.441Z,89.00
2023-03-04T07:32:39.408Z,89.70
2023-03-04T07:35:06.907Z,90.10
2023-03-04T07:37:33.797Z,89.80
2023-03-04T07:40:00.727Z,89.10
2023-03-04T07:42:27.660Z,89.50
2023-03-04T07:45:01.874Z,90.10
2023-03-04T07:47:28.827Z,90.40
2023-03-04T07:49:56.265Z,90.70
2023-03-04T07:52:23.182Z,90.70
2023-03-04T07:54:50.053Z,91.00
2023-03-04T07:57:17.031Z,91.10
2023-03-04T07:59:43.954Z,91.40
2023-03-04T08:02:11.234Z,91.00
2023-03-04T08:04:38.349Z,90.80
2023-03-04T08:07:05.360Z,91.30
2023-03-04T08:09:32.300Z,91.40
2023-03-04T08:11:59.152Z,91.20
2023-03-04T08:14:26.052Z,90.70
2023-03-04T08:16:52.966Z,91.10
2023-03-04T08:19:19.917Z,91.20
2023-03-04T08:21:46.767Z,90.90
2023-03-04T08:24:13.846Z,91.50
2023-03-04T08:26:43.129Z,91.30
2023-03-04T08:29:12.340Z,91.70
2023-03-04T08:31:39.730Z,91.90
2023-03-04T08:34:07.749Z,91.60
2023-03-04T08:36:34.826Z,90.80
2023-03-04T08:39:01.874Z,90.80
2023-03-04T08:41:29.450Z,90.60
2023-03-04T08:43:56.354Z,90.80
2023-03-04T08:46:23.368Z,90.00
2023-03-04T08:48:50.269Z,88.90
2023-03-04T08:51:17.346Z,90.00
2023-03-04T08:53:44.381Z,90.00
2023-03-04T08:56:11.469Z,89.50
2023-03-04T08:58:38.349Z,87.70
2023-03-04T09:01:05.414Z,87.80
2023-03-04T09:03:32.342Z,88.60
2023-03-04T09:05:59.261Z,88.20
2023-03-04T09:08:26.184Z,87.90
2023-03-04T09:10:53.753Z,87.10
2023-03-04T09:13:21.151Z,85.90
2023-03-04T09:15:49.402Z,87.00
2023-03-04T09:18:16.408Z,87.30
2023-03-04T09:20:43.617Z,87.00
2023-03-04T09:23:10.722Z,86.70
2023-03-04T09:25:38.252Z,86.10
2023-03-04T09:28:05.768Z,84.10
2023-03-04T09:30:32.942Z,84.90
2023-03-04T09:32:59.779Z,82.90
2023-03-04T09:35:26.710Z,84.00
2023-03-04T09:37:54.335Z,81.80
2023-03-04T09:40:22.678Z,81.90
2023-03-04T09:43:00.841Z,81.20
2023-03-04T09:45:33.875Z,80.80
2023-03-04T09:48:00.838Z,79.60
2023-03-04T09:50:28.032Z,79.10
2023-03-04T09:53:04.268Z,79.00
2023-03-04T09:55:47.081Z,80.10
2023-03-04T09:58:46.559Z,78.10
2023-03-04T10:01:18.178Z,74.00
2023-03-04T10:04:09.715Z,80.30
2023-03-04T10:06:36.581Z,74.50
2023-03-04T10:09:07.903Z,77.70
2023-03-04T10:11:46.698Z,78.10
2023-03-04T10:14:22.748Z,80.40
2023-03-04T10:16:56.365Z,80.40
2023-03-04T10:19:29.784Z,81.40
2023-03-04T10:21:56.768Z,80.60
2023-03-04T10:24:28.737Z,79.20
2023-03-04T10:27:02.686Z,79.50
2023-03-04T10:29:30.136Z,82.00
2023-03-04T10:31:57.098Z,79.40
2023-03-04T10:34:24.084Z,76.50
2023-03-04T10:36:55.011Z,79.40
2023-03-04T10:39:42.570Z,79.40
2023-03-04T10:42:15.240Z,78.90
2023-03-04T10:44:56.361Z,80.20
2023-03-04T10:47:25.332Z,80.30
2023-03-04T10:49:52.892Z,76.10
2023-03-04T10:52:39.249Z,78.00
2023-03-04T10:55:13.582Z,75.70
2023-03-04T10:57:41.942Z,79.20
2023-03-04T11:00:17.944Z,78.10
2023-03-04T11:02:48.430Z,80.10
2023-03-04T11:05:18.195Z,79.60
2023-03-04T11:07:58.914Z,80.40
2023-03-04T11:10:29.878Z,72.70
2023-03-04T11:13:04.078Z,78.40
2023-03-04T11:15:31.397Z,74.40
2023-03-04T11:18:04.615Z,76.40
2023-03-04T11:20:41.981Z,71.60
2023-03-04T11:23:17.966Z,74.20
2023-03-04T11:25:55.025Z,69.30
2023-03-04T11:28:29.390Z,71.60
2023-03-04T11:30:58.530Z,74.20
2023-03-04T11:33:41.663Z,72.00
2023-03-04T11:36:28.454Z,75.00
2023-03-04T11:38:57.064Z,71.80
2023-03-04T11:41:32.134Z,67.90
2023-03-04T11:44:00.090Z,69.30
2023-03-04T11:46:42.574Z,68.80
2023-03-04T11:49:18.392Z,68.70
2023-03-04T11:52:12.802Z,71.80
2023-03-04T11:55:01.693Z,68.10
2023-03-04T11:57:56.551Z,68.80
2023-03-04T12:00:29.316Z,70.30
2023-03-04T12:03:16.189Z,70.40
2023-03-04T12:05:57.969Z,68.10
2023-03-04T12:09:00.257Z,71.80
2023-03-04T12:11:43.864Z,70.60
2023-03-04T12:14:13.747Z,68.10
2023-03-04T12:16:59.753Z,70.30
2023-03-04T12:19:49.490Z,70.60
2023-03-04T12:22:30.291Z,70.00
2023-03-04T12:25:22.225Z,71.70
2023-03-04T12:28:13.452Z,70.10
2023-03-04T12:30:53.066Z,69.40
2023-03-04T12:33:38.432Z,69.70
2023-03-04T12:36:21.389Z,67.00
2023-03-04T12:39:00.980Z,69.70
2023-03-04T12:41:39.884Z,67.70
2023-03-04T12:44:19.437Z,64.60
2023-03-04T12:47:11.707Z,61.90
2023-03-04T12:49:59.450Z,62.00
2023-03-04T12:52:50.281Z,60.10
2023-03-04T12:55:19.089Z,59.20
2023-03-04T12:57:46.239Z,58.50
2023-03-04T13:00:25.503Z,61.30
2023-03-04T13:03:10.277Z,60.00
2023-03-04T13:06:08.030Z,60.20
2023-03-04T13:09:02.540Z,60.50
2023-03-04T13:11:29.936Z,57.80
2023-03-04T13:14:22.703Z,56.90
2023-03-04T13:17:01.893Z,52.90
2023-03-04T13:19:51.124Z,59.40
2023-03-04T13:22:38.271Z,60.70
2023-03-04T13:25:40.757Z,56.10
2023-03-04T13:28:19.383Z,58.50
2023-03-04T13:30:46.237Z,58.00
2023-03-04T13:33:33.371Z,60.20
2023-03-04T13:36:02.262Z,62.70
2023-03-04T13:38:32.533Z,61.10
2023-03-04T13:41:11.539Z,62.20
2023-03-04T13:43:39.895Z,62.20
2023-03-04T13:46:42.109Z,62.20
2023-03-04T13:49:22.261Z,55.80
2023-03-04T13:51:49.105Z,57.70
2023-03-04T13:54:22.094Z,59.40
2023-03-04T13:56:52.775Z,62.20
2023-03-04T13:59:24.697Z,62.10
2023-03-04T14:02:10.431Z,62.20
2023-03-04T14:04:47.844Z,60.50
2023-03-04T14:07:38.238Z,58.60
2023-03-04T14:10:15.094Z,59.80
2023-03-04T14:12:45.306Z,55.60
2023-03-04T14:15:27.848Z,51.40
2023-03-04T14:17:58.714Z,55.10
2023-03-04T14:20:31.336Z,56.80
2023-03-04T14:22:59.268Z,54.80
2023-03-04T14:25:27.162Z,56.00
2023-03-04T14:28:04.289Z,60.10
2023-03-04T14:30:42.335Z,58.20
2023-03-04T14:33:16.049Z,62.10
2023-03-04T14:35:47.517Z,60.00
2023-03-04T14:38:30.913Z,55.90
2023-03-04T14:40:59.475Z,53.60
2023-03-04T14:43:26.296Z,56.50
2023-03-04T14:45:55.363Z,57.60
2023-03-04T14:48:29.843Z,55.60
2023-03-04T14:50:57.281Z,54.30
2023-03-04T14:53:25.957Z,55.70
2023-03-04T14:55:57.343Z,60.50
2023-03-04T14:58:28.914Z,58.90
2023-03-04T15:01:07.834Z,57.50
2023-03-04T15:03:34.852Z,57.60
2023-03-04T15:06:22.138Z,57.50
2023-03-04T15:09:21.688Z,59.50
2023-03-04T15:11:50.004Z,52.90
2023-03-04T15:14:45.435Z,55.80
2023-03-04T15:17:38.569Z,50.90
2023-03-04T15:20:11.277Z,51.00
2023-03-04T15:22:46.761Z,50.40
2023-03-04T15:25:20.394Z,49.60
2023-03-04T15:27:47.858Z,49.60
2023-03-04T15:30:19.517Z,49.60
2023-03-04T15:32:46.467Z,48.50
2023-03-04T15:35:13.878Z,49.70
2023-03-04T15:37:40.965Z,49.60
2023-03-04T15:40:40.240Z,46.40
2023-03-04T15:43:07.251Z,45.30
2023-03-04T15:45:37.008Z,47.10
2023-03-04T15:48:07.924Z,45.90
2023-03-04T15:50:36.467Z,48.40
2023-03-04T15:53:07.374Z,49.40
2023-03-04T15:55:35.318Z,49.30
2023-03-04T15:58:02.204Z,49.30
2023-03-04T16:00:29.092Z,49.50
2023-03-04T16:02:56.071Z,50.00
2023-03-04T16:05:23.017Z,49.30
2023-03-04T16:07:50.444Z,49.10
2023-03-04T16:10:21.687Z,48.60
2023-03-04T16:12:48.947Z,47.90
2023-03-04T16:15:25.498Z,46.50
2023-03-04T16:17:52.434Z,49.40
2023-03-04T16:20:21.493Z,49.40
2023-03-04T16:22:50.027Z,49.00
2023-03-04T16:25:17.423Z,47.50
2023-03-04T16:27:44.748Z,48.80
2023-03-04T16:30:16.362Z,48.20
2023-03-04T16:32:43.590Z,47.70
2023-03-04T16:35:12.238Z,46.80
2023-03-04T16:37:39.527Z,45.70
2023-03-04T16:40:07.204Z,47.40
2023-03-04T16:42:34.134Z,47.40
2023-03-04T16:45:01.087Z,48.70
2023-03-04T16:47:28.108Z,50.40
2023-03-04T16:49:55.126Z,45.80
2023-03-04T16:52:31.309Z,48.30
2023-03-04T16:54:58.372Z,46.10
2023-03-04T16:57:28.491Z,49.20
2023-03-04T16:59:55.535Z,49.30
2023-03-04T17:02:22.867Z,47.50
2023-03-04T17:04:50.136Z,49.20
2023-03-04T17:07:17.077Z,49.30
2023-03-04T17:09:43.946Z,47.90
2023-03-04T17:12:12.043Z,48.60
2023-03-04T17:14:38.982Z,49.20
2023-03-04T17:17:06.250Z,49.10
2023-03-04T17:19:33.377Z,49.20
2023-03-04T17:22:00.636Z,49.10
2023-03-04T17:24:27.598Z,49.10
2023-03-04T17:26:54.528Z,49.10
2023-03-04T17:29:21.448Z,49.20
2023-03-04T17:31:48.353Z,49.10
2023-03-04T17:34:15.377Z,49.20
2023-03-04T17:36:42.273Z,49.10
2023-03-04T17:39:09.265Z,49.00
2023-03-04T17:41:36.395Z,49.60
2023-03-04T17:44:03.271Z,49.40
2023-03-04T17:46:30.339Z,50.10
2023-03-04T17:48:59.238Z,49.00
2023-03-04T17:51:32.796Z,49.10
2023-03-04T17:54:01.349Z,49.00
2023-03-04T17:56:31.949Z,49.00
2023-03-04T17:58:59.742Z,48.30
2023-03-04T18:01:26.998Z,49.00
2023-03-04T18:03:54.028Z,46.50
2023-03-04T18:06:22.819Z,47.30
2023-03-04T18:08:49.846Z,47.50
2023-03-04T18:11:16.791Z,48.90
2023-03-04T18:13:44.017Z,48.90
2023-03-04T18:16:12.053Z,47.10
2023-03-04T18:18:39.028Z,48.90
2023-03-04T18:21:06.214Z,49.00
2023-03-04T18:23:33.217Z,48.00
2023-03-04T18:26:00.376Z,48.00
2023-03-04T18:28:27.795Z,48.40
2023-03-04T18:30:54.774Z,49.00
2023-03-04T18:33:21.660Z,48.90
2023-03-04T18:35:48.633Z,47.80
2023-03-04T18:38:15.688Z,48.90
2023-03-04T18:40:43.115Z,50.20
2023-03-04T18:43:09.953Z,48.80
2023-03-04T18:45:36.905Z,48.70
2023-03-04T18:48:04.185Z,48.80
2023-03-04T18:50:31.028Z,49.00
2023-03-04T18:52:57.884Z,48.80
2023-03-04T18:55:24.790Z,48.90
2023-03-04T18:57:52.667Z,48.90
2023-03-04T19:00:23.403Z,48.90
2023-03-04T19:03:00.113Z,48.90
2023-03-04T19:05:29.227Z,49.40
2023-03-04T19:07:56.192Z,49.80
2023-03-04T19:10:23.812Z,48.90
2023-03-04T19:12:50.717Z,49.70
2023-03-04T19:15:18.337Z,50.40
2023-03-04T19:17:48.425Z,48.90
2023-03-04T19:20:15.508Z,48.90
2023-03-04T19:22:42.696Z,47.00
2023-03-04T19:25:09.825Z,48.80
2023-03-04T19:27:36.791Z,47.00
2023-03-04T19:30:04.652Z,47.40
2023-03-04T19:32:31.620Z,48.70
2023-03-04T19:35:01.726Z,48.30
2023-03-04T19:37:28.515Z,48.40
2023-03-04T19:39:56.127Z,46.50
2023-03-04T19:42:23.815Z,48.60
2023-03-04T19:44:50.753Z,48.60
2023-03-04T19:47:17.657Z,48.60
2023-03-04T19:49:44.541Z,48.50
2023-03-04T19:52:11.477Z,48.70
2023-03-04T19:54:38.338Z,48.60
2023-03-04T19:57:05.238Z,48.60
2023-03-04T19:59:32.130Z,48.60
2023-03-04T20:02:01.283Z,48.60
2023-03-04T20:04:28.331Z,48.60
2023-03-04T20:06:55.302Z,47.20
2023-03-04T20:09:22.793Z,48.20
2023-03-04T20:11:59.321Z,47.30
2023-03-04T20:14:27.260Z,48.00
2023-03-04T20:16:54.118Z,46.90
2023-03-04T20:19:21.033Z,48.60
2023-03-04T20:21:47.888Z,48.50
2023-03-04T20:24:15.264Z,48.60
2023-03-04T20:26:42.248Z,48.60
2023-03-04T20:29:09.141Z,49.40
2023-03-04T20:31:38.299Z,49.80
2023-03-04T20:34:05.939Z,48.60
2023-03-04T20:36:32.918Z,48.60
2023-03-04T20:39:02.763Z,48.60
2023-03-04T20:41:32.391Z,49.40
2023-03-04T20:43:59.296Z,48.50
2023-03-04T20:46:43.360Z,48.50
2023-03-04T20:49:22.223Z,48.60
2023-03-04T20:51:49.975Z,49.60
2023-03-04T20:54:17.055Z,48.50
2023-03-04T20:56:43.915Z,49.60
2023-03-04T20:59:11.071Z,49.60
2023-03-04T21:01:39.707Z,49.20
2023-03-04T21:04:06.857Z,51.10
2023-03-04T21:06:33.945Z,50.60
2023-03-04T21:09:02.423Z,49.40
2023-03-04T21:11:29.359Z,51.10
2023-03-04T21:13:57.775Z,50.90
2023-03-04T21:16:26.843Z,51.40
2023-03-04T21:18:53.864Z,51.20
2023-03-04T21:21:23.151Z,52.70
2023-03-04T21:23:51.025Z,53.50
2023-03-04T21:26:18.406Z,53.30
2023-03-04T21:28:45.522Z,52.90
2023-03-04T21:31:17.964Z,53.00
2023-03-04T21:33:45.021Z,53.50
2023-03-04T21:36:13.893Z,53.10
2023-03-04T21:38:41.789Z,54.70
2023-03-04T21:41:19.866Z,54.20
2023-03-04T21:43:46.887Z,54.40
2023-03-04T21:46:14.598Z,54.50
2023-03-04T21:48:43.338Z,54.10
2023-03-04T21:51:13.085Z,54.70
2023-03-04T21:53:40.060Z,52.60
2023-03-04T21:56:06.881Z,53.50
2023-03-04T21:58:35.417Z,54.00
2023-03-04T22:01:12.699Z,52.90
2023-03-04T22:03:39.782Z,51.90
2023-03-04T22:06:08.056Z,52.70
2023-03-04T22:08:35.148Z,52.30
2023-03-04T22:11:05.948Z,53.20
2023-03-04T22:13:33.445Z,53.20
2023-03-04T22:16:00.572Z,51.90
2023-03-04T22:18:27.630Z,51.40
2023-03-04T22:21:00.410Z,52.00
2023-03-04T22:23:27.507Z,51.70
2023-03-04T22:25:55.687Z,52.50
2023-03-04T22:28:25.198Z,54.20
2023-03-04T22:30:52.303Z,53.30
2023-03-04T22:33:19.175Z,53.50
2023-03-04T22:35:46.149Z,54.20
2023-03-04T22:38:13.083Z,52.90
2023-03-04T22:40:40.004Z,54.20
2023-03-04T22:43:06.824Z,53.70
2023-03-04T22:45:33.807Z,53.40
2023-03-04T22:48:00.725Z,54.10
2023-03-04T22:50:27.664Z,53.70
2023-03-04T22:52:54.560Z,53.80
2023-03-04T22:55:21.921Z,53.50
2023-03-04T22:57:48.775Z,54.80
2023-03-04T23:00:23.498Z,53.70
2023-03-04T23:02:50.703Z,53.10
2023-03-04T23:05:20.832Z,53.20
2023-03-04T23:07:47.942Z,53.30
2023-03-04T23:10:21.197Z,53.00
2023-03-04T23:12:48.153Z,52.80
2023-03-04T23:15:15.801Z,53.10
2023-03-04T23:17:43.011Z,52.30
2023-03-04T23:20:14.180Z,53.00
2023-03-04T23:22:41.093Z,53.60
2023-03-04T23:25:08.487Z,54.30
2023-03-04T23:27:35.338Z,52.90
2023-03-04T23:30:02.267Z,53.20
2023-03-04T23:32:29.159Z,53.50
2023-03-04T23:34:56.367Z,53.90
2023-03-04T23:37:23.435Z,53.70
2023-03-04T23:39:50.359Z,53.90
2023-03-04T23:42:17.330Z,54.20
2023-03-04T23:44:44.239Z,54.10
2023-03-04T23:47:11.159Z,54.70
2023-03-04T23:49:38.102Z,54.70
2023-03-04T23:52:05.190Z,54.00
2023-03-04T23:54:32.110Z,54.60
2023-03-04T23:57:02.024Z,54.20
2023-03-04T23:59:29.183Z,54.50
